sensor_id;sensor_type;location;lat;lon;timestamp;pressure;altitude;pressure_sealevel;temperature;humidity
39129;BME280;24864;49.940;19.770;2022-11-02T00:01:07;75995.97;;;-147.98;100.00
39129;BME280;24864;49.940;19.770;2022-11-02T00:03:39;75989.72;;;-147.98;100.00
39129;BME280;24864;49.940;19.770;2022-11-02T00:06:07;75979.34;;;-147.98;100.00
39129;BME280;24864;49.940;19.770;2022-11-02T00:08:35;75966.84;;;-147.98;100.00
39129;BME280;24864;49.940;19.770;2022-11-02T00:11:03;75960.63;;;-147.98;100.00
39129;BME280;24864;49.940;19.770;2022-11-02T00:13:32;75950.22;;;-147.98;100.00
39129;BME280;24864;49.940;19.770;2022-11-02T00:16:01;75941.91;;;-147.98;100.00
39129;BME280;24864;49.940;19.770;2022-11-02T00:18:29;75941.91;;;-147.98;100.00
39129;BME280;24864;49.940;19.770;2022-11-02T00:20:57;75950.22;;;-147.98;100.00
39129;BME280;24864;49.940;19.770;2022-11-02T00:23:26;75950.22;;;-147.98;100.00
39129;BME280;24864;49.940;19.770;2022-11-02T00:25:55;75950.22;;;-147.98;100.00
39129;BME280;24864;49.940;19.770;2022-11-02T00:28:28;75973.09;;;-147.98;100.00
39129;BME280;24864;49.940;19.770;2022-11-02T00:30:58;75946.06;;;-147.98;100.00
39129;BME280;24864;49.940;19.770;2022-11-02T00:33:26;75946.06;;;-147.98;100.00
39129;BME280;24864;49.940;19.770;2022-11-02T00:35:54;75941.91;;;-147.98;100.00
39129;BME280;24864;49.940;19.770;2022-11-02T00:38:22;75958.53;;;-147.98;100.00
39129;BME280;24864;49.940;19.770;2022-11-02T00:40:50;75962.69;;;-147.98;100.00
39129;BME280;24864;49.940;19.770;2022-11-02T00:43:18;75956.47;;;-147.98;100.00
39129;BME280;24864;49.940;19.770;2022-11-02T00:45:46;75935.69;;;-147.98;100.00
39129;BME280;24864;49.940;19.770;2022-11-02T00:48:15;75954.38;;;-147.98;100.00
39129;BME280;24864;49.940;19.770;2022-11-02T00:50:43;75977.25;;;-147.98;100.00
39129;BME280;24864;49.940;19.770;2022-11-02T00:53:11;75983.50;;;-147.98;100.00
39129;BME280;24864;49.940;19.770;2022-11-02T00:55:39;75995.97;;;-147.98;100.00
39129;BME280;24864;49.940;19.770;2022-11-02T00:58:07;75995.97;;;-147.98;100.00
39129;BME280;24864;49.940;19.770;2022-11-02T01:00:35;76004.28;;;-147.98;100.00
39129;BME280;24864;49.940;19.770;2022-11-02T01:03:03;76008.44;;;-147.98;100.00
39129;BME280;24864;49.940;19.770;2022-11-02T01:05:32;76016.75;;;-147.98;100.00
39129;BME280;24864;49.940;19.770;2022-11-02T01:08:00;76020.91;;;-147.98;100.00
39129;BME280;24864;49.940;19.770;2022-11-02T01:10:28;76020.91;;;-147.98;100.00
39129;BME280;24864;49.940;19.770;2022-11-02T01:12:56;76012.59;;;-147.98;100.00
39129;BME280;24864;49.940;19.770;2022-11-02T01:15:24;76004.28;;;-147.98;100.00
39129;BME280;24864;49.940;19.770;2022-11-02T01:17:52;76010.50;;;-147.98;100.00
39129;BME280;24864;49.940;19.770;2022-11-02T01:20:20;75993.88;;;-147.98;100.00
39129;BME280;24864;49.940;19.770;2022-11-02T01:22:49;76004.28;;;-147.98;100.00
39129;BME280;24864;49.940;19.770;2022-11-02T01:25:17;75998.03;;;-147.98;100.00
39129;BME280;24864;49.940;19.770;2022-11-02T01:27:45;76016.75;;;-147.98;100.00
39129;BME280;24864;49.940;19.770;2022-11-02T01:30:13;76010.50;;;-147.98;100.00
39129;BME280;24864;49.940;19.770;2022-11-02T01:32:41;76000.13;;;-147.98;100.00
39129;BME280;24864;49.940;19.770;2022-11-02T01:35:09;76004.28;;;-147.98;100.00
39129;BME280;24864;49.940;19.770;2022-11-02T01:37:37;76016.75;;;-147.98;100.00
39129;BME280;24864;49.940;19.770;2022-11-02T01:40:07;76008.44;;;-147.98;100.00
39129;BME280;24864;49.940;19.770;2022-11-02T01:42:35;76006.34;;;-147.98;100.00
39129;BME280;24864;49.940;19.770;2022-11-02T01:45:04;76010.50;;;-147.98;100.00
39129;BME280;24864;49.940;19.770;2022-11-02T01:47:36;75991.81;;;-147.98;100.00
39129;BME280;24864;49.940;19.770;2022-11-02T01:50:08;75979.34;;;-147.98;100.00
39129;BME280;24864;49.940;19.770;2022-11-02T01:52:38;75983.50;;;-147.98;100.00
39129;BME280;24864;49.940;19.770;2022-11-02T01:55:11;76002.19;;;-147.98;100.00
39129;BME280;24864;49.940;19.770;2022-11-02T01:57:43;75995.97;;;-147.98;100.00
39129;BME280;24864;49.940;19.770;2022-11-02T02:00:14;76000.13;;;-147.98;100.00
39129;BME280;24864;49.940;19.770;2022-11-02T02:02:46;76014.69;;;-147.98;100.00
39129;BME280;24864;49.940;19.770;2022-11-02T02:05:17;76002.19;;;-147.98;100.00
39129;BME280;24864;49.940;19.770;2022-11-02T02:07:48;75989.72;;;-147.98;100.00
39129;BME280;24864;49.940;19.770;2022-11-02T02:10:18;76016.75;;;-147.98;100.00
39129;BME280;24864;49.940;19.770;2022-11-02T02:12:46;76008.44;;;-147.98;100.00
39129;BME280;24864;49.940;19.770;2022-11-02T02:15:15;76025.06;;;-147.98;100.00
39129;BME280;24864;49.940;19.770;2022-11-02T02:17:46;76016.75;;;-147.98;100.00
39129;BME280;24864;49.940;19.770;2022-11-02T02:20:25;76006.34;;;-147.98;100.00
39129;BME280;24864;49.940;19.770;2022-11-02T02:23:32;75995.97;;;-147.98;100.00
39129;BME280;24864;49.940;19.770;2022-11-02T02:26:21;76023.00;;;-147.98;100.00
39129;BME280;24864;49.940;19.770;2022-11-02T02:28:53;76012.59;;;-147.98;100.00
39129;BME280;24864;49.940;19.770;2022-11-02T02:31:28;76012.59;;;-147.98;100.00
39129;BME280;24864;49.940;19.770;2022-11-02T02:34:03;76016.75;;;-147.98;100.00
39129;BME280;24864;49.940;19.770;2022-11-02T02:36:38;76016.75;;;-147.98;100.00
39129;BME280;24864;49.940;19.770;2022-11-02T02:39:15;76023.00;;;-147.98;100.00
39129;BME280;24864;49.940;19.770;2022-11-02T02:41:51;76016.75;;;-147.98;100.00
39129;BME280;24864;49.940;19.770;2022-11-02T02:44:25;76008.44;;;-147.98;100.00
39129;BME280;24864;49.940;19.770;2022-11-02T02:46:59;76002.19;;;-147.98;100.00
39129;BME280;24864;49.940;19.770;2022-11-02T02:49:34;76006.34;;;-147.98;100.00
39129;BME280;24864;49.940;19.770;2022-11-02T02:52:05;75998.03;;;-147.98;100.00
39129;BME280;24864;49.940;19.770;2022-11-02T02:54:35;76004.28;;;-147.98;100.00
39129;BME280;24864;49.940;19.770;2022-11-02T02:57:08;76025.06;;;-147.98;100.00
39129;BME280;24864;49.940;19.770;2022-11-02T02:59:41;76025.06;;;-147.98;100.00
39129;BME280;24864;49.940;19.770;2022-11-02T03:02:13;76041.69;;;-147.98;100.00
39129;BME280;24864;49.940;19.770;2022-11-02T03:04:43;76037.53;;;-147.98;100.00
39129;BME280;24864;49.940;19.770;2022-11-02T03:07:11;76037.53;;;-147.98;100.00
39129;BME280;24864;49.940;19.770;2022-11-02T03:09:44;76045.84;;;-147.98;100.00
39129;BME280;24864;49.940;19.770;2022-11-02T03:12:18;76047.94;;;-147.98;100.00
39129;BME280;24864;49.940;19.770;2022-11-02T03:15:07;76062.50;;;-147.98;100.00
39129;BME280;24864;49.940;19.770;2022-11-02T03:17:44;76056.25;;;-147.98;100.00
39129;BME280;24864;49.940;19.770;2022-11-02T03:20:19;76058.34;;;-147.98;100.00
39129;BME280;24864;49.940;19.770;2022-11-02T03:23:01;76045.84;;;-147.98;100.00
39129;BME280;24864;49.940;19.770;2022-11-02T03:25:40;76060.41;;;-147.98;100.00
39129;BME280;24864;49.940;19.770;2022-11-02T03:28:15;76060.41;;;-147.98;100.00
39129;BME280;24864;49.940;19.770;2022-11-02T03:30:51;76054.19;;;-147.98;100.00
39129;BME280;24864;49.940;19.770;2022-11-02T03:33:25;76056.25;;;-147.98;100.00
39129;BME280;24864;49.940;19.770;2022-11-02T03:36:02;76050.00;;;-147.98;100.00
39129;BME280;24864;49.940;19.770;2022-11-02T03:38:38;76056.25;;;-147.98;100.00
39129;BME280;24864;49.940;19.770;2022-11-02T03:41:09;76072.88;;;-147.98;100.00
39129;BME280;24864;49.940;19.770;2022-11-02T03:43:39;76083.28;;;-147.98;100.00
39129;BME280;24864;49.940;19.770;2022-11-02T03:46:10;76108.22;;;-147.98;100.00
39129;BME280;24864;49.940;19.770;2022-11-02T03:48:42;76099.91;;;-147.98;100.00
39129;BME280;24864;49.940;19.770;2022-11-02T03:51:13;76114.47;;;-147.98;100.00
39129;BME280;24864;49.940;19.770;2022-11-02T03:53:46;76116.53;;;-147.98;100.00
39129;BME280;24864;49.940;19.770;2022-11-02T03:56:19;76124.84;;;-147.98;100.00
39129;BME280;24864;49.940;19.770;2022-11-02T03:58:48;76126.94;;;-147.98;100.00
39129;BME280;24864;49.940;19.770;2022-11-02T04:01:18;76129.00;;;-147.98;100.00
39129;BME280;24864;49.940;19.770;2022-11-02T04:03:47;76126.94;;;-147.98;100.00
39129;BME280;24864;49.940;19.770;2022-11-02T04:06:15;76120.69;;;-147.98;100.00
39129;BME280;24864;49.940;19.770;2022-11-02T04:08:45;76120.69;;;-147.98;100.00
39129;BME280;24864;49.940;19.770;2022-11-02T04:11:15;76112.38;;;-147.98;100.00
39129;BME280;24864;49.940;19.770;2022-11-02T04:14:00;76116.53;;;-147.98;100.00
39129;BME280;24864;49.940;19.770;2022-11-02T04:16:47;76120.69;;;-147.98;100.00
39129;BME280;24864;49.940;19.770;2022-11-02T04:19:15;76116.53;;;-147.98;100.00
39129;BME280;24864;49.940;19.770;2022-11-02T04:21:55;76106.16;;;-147.98;100.00
39129;BME280;24864;49.940;19.770;2022-11-02T04:24:40;76108.22;;;-147.98;100.00
39129;BME280;24864;49.940;19.770;2022-11-02T04:27:26;76108.22;;;-147.98;100.00
39129;BME280;24864;49.940;19.770;2022-11-02T04:29:54;76099.91;;;-147.98;100.00
39129;BME280;24864;49.940;19.770;2022-11-02T04:32:23;76108.22;;;-147.98;100.00
39129;BME280;24864;49.940;19.770;2022-11-02T04:35:06;76106.16;;;-147.98;100.00
39129;BME280;24864;49.940;19.770;2022-11-02T04:37:38;76106.16;;;-147.98;100.00
39129;BME280;24864;49.940;19.770;2022-11-02T04:40:24;76095.75;;;-147.98;100.00
39129;BME280;24864;49.940;19.770;2022-11-02T04:42:52;76120.69;;;-147.98;100.00
39129;BME280;24864;49.940;19.770;2022-11-02T04:45:20;76104.06;;;-147.98;100.00
39129;BME280;24864;49.940;19.770;2022-11-02T04:47:49;76095.75;;;-147.98;100.00
39129;BME280;24864;49.940;19.770;2022-11-02T04:50:17;76108.22;;;-147.98;100.00
39129;BME280;24864;49.940;19.770;2022-11-02T04:52:45;76104.06;;;-147.98;100.00
39129;BME280;24864;49.940;19.770;2022-11-02T04:55:13;76112.38;;;-147.98;100.00
39129;BME280;24864;49.940;19.770;2022-11-02T04:57:43;76120.69;;;-147.98;100.00
39129;BME280;24864;49.940;19.770;2022-11-02T05:00:13;76112.38;;;-147.98;100.00
39129;BME280;24864;49.940;19.770;2022-11-02T05:02:41;76104.06;;;-147.98;100.00
39129;BME280;24864;49.940;19.770;2022-11-02T05:05:10;76108.22;;;-147.98;100.00
39129;BME280;24864;49.940;19.770;2022-11-02T05:07:38;76104.06;;;-147.98;100.00
39129;BME280;24864;49.940;19.770;2022-11-02T05:10:07;76104.06;;;-147.98;100.00
39129;BME280;24864;49.940;19.770;2022-11-02T05:12:35;76091.59;;;-147.98;100.00
39129;BME280;24864;49.940;19.770;2022-11-02T05:15:04;76093.69;;;-147.98;100.00
39129;BME280;24864;49.940;19.770;2022-11-02T05:17:32;76120.69;;;-147.98;100.00
39129;BME280;24864;49.940;19.770;2022-11-02T05:20:00;76118.63;;;-147.98;100.00
39129;BME280;24864;49.940;19.770;2022-11-02T05:22:30;76122.78;;;-147.98;100.00
39129;BME280;24864;49.940;19.770;2022-11-02T05:24:58;76120.69;;;-147.98;100.00
39129;BME280;24864;49.940;19.770;2022-11-02T05:27:26;76120.69;;;-147.98;100.00
39129;BME280;24864;49.940;19.770;2022-11-02T05:29:54;76156.03;;;-147.98;100.00
39129;BME280;24864;49.940;19.770;2022-11-02T05:32:22;76149.81;;;-147.98;100.00
39129;BME280;24864;49.940;19.770;2022-11-02T05:34:50;76149.81;;;-147.98;100.00
39129;BME280;24864;49.940;19.770;2022-11-02T05:37:18;76137.34;;;-147.98;100.00
39129;BME280;24864;49.940;19.770;2022-11-02T05:39:47;76153.97;;;-147.98;100.00
39129;BME280;24864;49.940;19.770;2022-11-02T05:42:16;76151.88;;;-147.98;100.00
39129;BME280;24864;49.940;19.770;2022-11-02T05:44:44;76149.81;;;-147.98;100.00
39129;BME280;24864;49.940;19.770;2022-11-02T05:47:12;76131.09;;;-147.98;100.00
39129;BME280;24864;49.940;19.770;2022-11-02T05:49:40;76145.66;;;-147.98;100.00
39129;BME280;24864;49.940;19.770;2022-11-02T05:52:08;76133.19;;;-147.98;100.00
39129;BME280;24864;49.940;19.770;2022-11-02T05:54:35;76143.56;;;-147.98;100.00
39129;BME280;24864;49.940;19.770;2022-11-02T05:57:05;76141.50;;;-147.98;100.00
39129;BME280;24864;49.940;19.770;2022-11-02T05:59:33;76145.66;;;-147.98;100.00
39129;BME280;24864;49.940;19.770;2022-11-02T06:02:01;76135.25;;;-147.98;100.00
39129;BME280;24864;49.940;19.770;2022-11-02T06:04:29;76133.19;;;-147.98;100.00
39129;BME280;24864;49.940;19.770;2022-11-02T06:06:57;76137.34;;;-147.98;100.00
39129;BME280;24864;49.940;19.770;2022-11-02T06:09:24;76133.19;;;-147.98;100.00
39129;BME280;24864;49.940;19.770;2022-11-02T06:11:54;76129.00;;;-147.98;100.00
39129;BME280;24864;49.940;19.770;2022-11-02T06:14:23;76129.00;;;-147.98;100.00
39129;BME280;24864;49.940;19.770;2022-11-02T06:16:51;76149.81;;;-147.98;100.00
39129;BME280;24864;49.940;19.770;2022-11-02T06:19:19;76168.50;;;-147.98;100.00
39129;BME280;24864;49.940;19.770;2022-11-02T06:21:47;76156.03;;;-147.98;100.00
39129;BME280;24864;49.940;19.770;2022-11-02T06:24:15;76129.00;;;-147.98;100.00
39129;BME280;24864;49.940;19.770;2022-11-02T06:26:43;76124.84;;;-147.98;100.00
39129;BME280;24864;49.940;19.770;2022-11-02T06:29:12;76124.84;;;-147.98;100.00
39129;BME280;24864;49.940;19.770;2022-11-02T06:31:42;76129.00;;;-147.98;100.00
39129;BME280;24864;49.940;19.770;2022-11-02T06:34:10;76129.00;;;-147.98;100.00
39129;BME280;24864;49.940;19.770;2022-11-02T06:36:38;76137.34;;;-147.98;100.00
39129;BME280;24864;49.940;19.770;2022-11-02T06:39:05;76137.34;;;-147.98;100.00
39129;BME280;24864;49.940;19.770;2022-11-02T06:41:33;76145.66;;;-147.98;100.00
39129;BME280;24864;49.940;19.770;2022-11-02T06:44:01;76141.50;;;-147.98;100.00
39129;BME280;24864;49.940;19.770;2022-11-02T06:46:29;76145.66;;;-147.98;100.00
39129;BME280;24864;49.940;19.770;2022-11-02T06:48:59;76141.50;;;-147.98;100.00
39129;BME280;24864;49.940;19.770;2022-11-02T06:51:27;76122.78;;;-147.98;100.00
39129;BME280;24864;49.940;19.770;2022-11-02T06:53:55;76122.78;;;-147.98;100.00
39129;BME280;24864;49.940;19.770;2022-11-02T06:56:23;76110.31;;;-147.98;100.00
39129;BME280;24864;49.940;19.770;2022-11-02T06:58:50;76116.53;;;-147.98;100.00
39129;BME280;24864;49.940;19.770;2022-11-02T07:01:19;76108.22;;;-147.98;100.00
39129;BME280;24864;49.940;19.770;2022-11-02T07:03:47;76112.38;;;-147.98;100.00
39129;BME280;24864;49.940;19.770;2022-11-02T07:06:16;76108.22;;;-147.98;100.00
39129;BME280;24864;49.940;19.770;2022-11-02T07:08:44;76129.00;;;-147.98;100.00
39129;BME280;24864;49.940;19.770;2022-11-02T07:11:13;76112.38;;;-147.98;100.00
39129;BME280;24864;49.940;19.770;2022-11-02T07:13:41;76091.59;;;-147.98;100.00
39129;BME280;24864;49.940;19.770;2022-11-02T07:16:09;76085.34;;;-147.98;100.00
39129;BME280;24864;49.940;19.770;2022-11-02T07:18:37;76083.28;;;-147.98;100.00
39129;BME280;24864;49.940;19.770;2022-11-02T07:21:05;76095.75;;;-147.98;100.00
39129;BME280;24864;49.940;19.770;2022-11-02T07:23:37;76106.16;;;-147.98;100.00
39129;BME280;24864;49.940;19.770;2022-11-02T07:26:05;76091.59;;;-147.98;100.00
39129;BME280;24864;49.940;19.770;2022-11-02T07:28:33;76091.59;;;-147.98;100.00
39129;BME280;24864;49.940;19.770;2022-11-02T07:31:02;76095.75;;;-147.98;100.00
39129;BME280;24864;49.940;19.770;2022-11-02T07:33:30;76081.19;;;-147.98;100.00
39129;BME280;24864;49.940;19.770;2022-11-02T07:36:01;76077.03;;;-147.98;100.00
39129;BME280;24864;49.940;19.770;2022-11-02T07:38:29;76062.50;;;-147.98;100.00
39129;BME280;24864;49.940;19.770;2022-11-02T07:40:59;76050.00;;;-147.98;100.00
39129;BME280;24864;49.940;19.770;2022-11-02T07:43:26;76029.22;;;-147.98;100.00
39129;BME280;24864;49.940;19.770;2022-11-02T07:45:55;76025.06;;;-147.98;100.00
39129;BME280;24864;49.940;19.770;2022-11-02T07:48:22;76025.06;;;-147.98;100.00
39129;BME280;24864;49.940;19.770;2022-11-02T07:50:50;75998.03;;;-147.98;100.00
39129;BME280;24864;49.940;19.770;2022-11-02T07:53:18;75977.25;;;-147.98;100.00
39129;BME280;24864;49.940;19.770;2022-11-02T07:55:46;75962.69;;;-147.98;100.00
39129;BME280;24864;49.940;19.770;2022-11-02T07:58:15;75939.84;;;-147.98;100.00
39129;BME280;24864;49.940;19.770;2022-11-02T08:00:44;75931.53;;;-147.98;100.00
39129;BME280;24864;49.940;19.770;2022-11-02T08:03:11;75921.13;;;-147.98;100.00
39129;BME280;24864;49.940;19.770;2022-11-02T08:05:41;75881.63;;;-147.98;100.00
39129;BME280;24864;49.940;19.770;2022-11-02T08:08:11;75854.59;;;-147.98;100.00
39129;BME280;24864;49.940;19.770;2022-11-02T08:10:40;75846.28;;;-147.98;100.00
39129;BME280;24864;49.940;19.770;2022-11-02T08:13:09;75829.66;;;-147.98;100.00
39129;BME280;24864;49.940;19.770;2022-11-02T08:15:39;75823.41;;;-147.98;100.00
39129;BME280;24864;49.940;19.770;2022-11-02T08:18:12;75804.72;;;-147.98;100.00
39129;BME280;24864;49.940;19.770;2022-11-02T08:20:40;75788.09;;;-147.98;100.00
39129;BME280;24864;49.940;19.770;2022-11-02T08:23:09;75775.59;;;-147.98;100.00
39129;BME280;24864;49.940;19.770;2022-11-02T08:25:38;75758.97;;;-147.98;100.00
39129;BME280;24864;49.940;19.770;2022-11-02T08:28:08;75717.41;;;-147.98;100.00
39129;BME280;24864;49.940;19.770;2022-11-02T08:30:39;75717.41;;;-147.98;100.00
39129;BME280;24864;49.940;19.770;2022-11-02T08:33:10;75704.94;;;-147.98;100.00
39129;BME280;24864;49.940;19.770;2022-11-02T08:35:39;75696.63;;;-147.98;100.00
39129;BME280;24864;49.940;19.770;2022-11-02T08:38:08;75725.72;;;-147.98;100.00
39129;BME280;24864;49.940;19.770;2022-11-02T08:40:36;75667.50;;;-147.98;100.00
39129;BME280;24864;49.940;19.770;2022-11-02T08:43:06;75655.03;;;-147.98;100.00
39129;BME280;24864;49.940;19.770;2022-11-02T08:45:36;75632.19;;;-147.98;100.00
39129;BME280;24864;49.940;19.770;2022-11-02T08:48:26;75601.00;;;-147.98;100.00
39129;BME280;24864;49.940;19.770;2022-11-02T08:50:56;75584.38;;;-147.98;100.00
39129;BME280;24864;49.940;19.770;2022-11-02T08:53:24;75555.25;;;-147.98;100.00
39129;BME280;24864;49.940;19.770;2022-11-02T08:55:52;75573.97;;;-147.98;100.00
39129;BME280;24864;49.940;19.770;2022-11-02T08:58:20;75567.75;;;-147.98;100.00
39129;BME280;24864;49.940;19.770;2022-11-02T09:00:51;75576.06;;;-147.98;100.00
39129;BME280;24864;49.940;19.770;2022-11-02T09:03:20;75605.16;;;-147.98;100.00
39129;BME280;24864;49.940;19.770;2022-11-02T09:05:58;75576.06;;;-147.98;100.00
39129;BME280;24864;49.940;19.770;2022-11-02T09:08:27;75540.72;;;-147.98;100.00
39129;BME280;24864;49.940;19.770;2022-11-02T09:10:57;75534.47;;;-147.98;100.00
39129;BME280;24864;49.940;19.770;2022-11-02T09:13:26;75509.53;;;-147.98;100.00
39129;BME280;24864;49.940;19.770;2022-11-02T09:15:56;75544.88;;;-147.98;100.00
39129;BME280;24864;49.940;19.770;2022-11-02T09:18:25;75526.16;;;-147.98;100.00
39129;BME280;24864;49.940;19.770;2022-11-02T09:20:53;75492.91;;;-147.98;100.00
39129;BME280;24864;49.940;19.770;2022-11-02T09:23:22;75486.66;;;-147.98;100.00
39129;BME280;24864;49.940;19.770;2022-11-02T09:25:50;75503.28;;;-147.98;100.00
39129;BME280;24864;49.940;19.770;2022-11-02T09:28:19;75467.97;;;-147.98;100.00
39129;BME280;24864;49.940;19.770;2022-11-02T09:30:47;75453.41;;;-147.98;100.00
39129;BME280;24864;49.940;19.770;2022-11-02T09:33:15;75418.06;;;-147.98;99.46
39129;BME280;24864;49.940;19.770;2022-11-02T09:35:45;75384.81;;;-147.98;100.00
39129;BME280;24864;49.940;19.770;2022-11-02T09:38:14;75384.81;;;-147.98;98.69
39129;BME280;24864;49.940;19.770;2022-11-02T09:40:49;75376.50;;;-147.98;97.13
39129;BME280;24864;49.940;19.770;2022-11-02T09:43:27;75334.94;;;-147.98;95.18
39129;BME280;24864;49.940;19.770;2022-11-02T09:46:00;75368.19;;;-147.98;95.19
39129;BME280;24864;49.940;19.770;2022-11-02T09:48:33;75322.47;;;-147.98;93.90
39129;BME280;24864;49.940;19.770;2022-11-02T09:51:06;75276.72;;;-147.98;93.51
39129;BME280;24864;49.940;19.770;2022-11-02T09:53:42;75235.16;;;-147.98;91.29
39129;BME280;24864;49.940;19.770;2022-11-02T09:56:16;75172.81;;;-147.98;87.15
39129;BME280;24864;49.940;19.770;2022-11-02T09:58:48;75183.19;;;-147.98;86.21
39129;BME280;24864;49.940;19.770;2022-11-02T10:04:25;75172.81;;;-147.98;83.55
39129;BME280;24864;49.940;19.770;2022-11-02T10:07:02;75139.56;;;-147.98;84.37
39129;BME280;24864;49.940;19.770;2022-11-02T10:09:40;75133.31;;;-147.98;82.03
39129;BME280;24864;49.940;19.770;2022-11-02T10:12:14;75201.91;;;-147.98;82.16
39129;BME280;24864;49.940;19.770;2022-11-02T10:14:52;75181.13;;;-147.98;83.45
39129;BME280;24864;49.940;19.770;2022-11-02T10:17:25;75222.69;;;-147.98;83.31
39129;BME280;24864;49.940;19.770;2022-11-02T10:19:56;75168.66;;;-147.98;80.60
39129;BME280;24864;49.940;19.770;2022-11-02T10:22:26;75191.50;;;-147.98;81.30
39129;BME280;24864;49.940;19.770;2022-11-02T10:24:57;75185.28;;;-147.98;77.78
39129;BME280;24864;49.940;19.770;2022-11-02T10:27:30;75172.81;;;-147.98;83.48
39129;BME280;24864;49.940;19.770;2022-11-02T10:30:02;75133.31;;;-147.98;79.86
39129;BME280;24864;49.940;19.770;2022-11-02T10:32:32;75073.03;;;-147.98;76.03
39129;BME280;24864;49.940;19.770;2022-11-02T10:35:03;75073.03;;;-147.98;74.03
39129;BME280;24864;49.940;19.770;2022-11-02T10:38:02;75054.34;;;-147.98;74.46
39129;BME280;24864;49.940;19.770;2022-11-02T10:40:52;75050.19;;;-147.98;73.50
39129;BME280;24864;49.940;19.770;2022-11-02T10:43:37;75129.16;;;-147.98;75.23
39129;BME280;24864;49.940;19.770;2022-11-02T10:46:24;75102.13;;;-147.98;73.97
39129;BME280;24864;49.940;19.770;2022-11-02T10:48:58;75097.97;;;-147.98;71.25
39129;BME280;24864;49.940;19.770;2022-11-02T10:51:31;75127.09;;;-147.98;72.32
39129;BME280;24864;49.940;19.770;2022-11-02T10:53:59;75172.81;;;-147.98;72.77
39129;BME280;24864;49.940;19.770;2022-11-02T10:56:30;75183.19;;;-147.98;71.29
39129;BME280;24864;49.940;19.770;2022-11-02T10:59:02;75212.31;;;-147.98;71.58
39129;BME280;24864;49.940;19.770;2022-11-02T11:01:35;75141.63;;;-147.98;68.49
39129;BME280;24864;49.940;19.770;2022-11-02T11:04:05;75100.06;;;-147.98;68.42
39129;BME280;24864;49.940;19.770;2022-11-02T11:06:36;75110.44;;;-147.98;66.71
39129;BME280;24864;49.940;19.770;2022-11-02T11:09:06;75168.66;;;-147.98;67.37
39129;BME280;24864;49.940;19.770;2022-11-02T11:11:51;75156.19;;;-147.98;68.43
39129;BME280;24864;49.940;19.770;2022-11-02T11:14:22;75091.75;;;-147.98;67.09
39129;BME280;24864;49.940;19.770;2022-11-02T11:17:14;75087.59;;;-147.98;67.11
39129;BME280;24864;49.940;19.770;2022-11-02T11:20:04;75106.28;;;-147.98;67.76
39129;BME280;24864;49.940;19.770;2022-11-02T11:22:35;75168.66;;;-147.98;69.51
39129;BME280;24864;49.940;19.770;2022-11-02T11:25:19;75166.56;;;-147.98;70.33
39129;BME280;24864;49.940;19.770;2022-11-02T11:27:54;75191.50;;;-147.98;72.66
39129;BME280;24864;49.940;19.770;2022-11-02T11:30:26;75251.78;;;-147.98;73.93
39129;BME280;24864;49.940;19.770;2022-11-02T11:33:18;75289.19;;;-147.98;75.45
39129;BME280;24864;49.940;19.770;2022-11-02T11:35:49;75218.53;;;-147.98;73.81
39129;BME280;24864;49.940;19.770;2022-11-02T11:38:19;75185.28;;;-147.98;74.23
39129;BME280;24864;49.940;19.770;2022-11-02T11:40:51;75143.72;;;-147.98;72.81
39129;BME280;24864;49.940;19.770;2022-11-02T11:43:22;75197.75;;;-147.98;73.55
39129;BME280;24864;49.940;19.770;2022-11-02T11:45:57;75280.88;;;-147.98;73.70
39129;BME280;24864;49.940;19.770;2022-11-02T11:48:35;75258.03;;;-147.98;75.16
39129;BME280;24864;49.940;19.770;2022-11-02T11:51:22;75220.63;;;-147.98;73.62
39129;BME280;24864;49.940;19.770;2022-11-02T11:54:12;75203.97;;;-147.98;71.03
39129;BME280;24864;49.940;19.770;2022-11-02T11:56:43;75226.84;;;-147.98;73.39
39129;BME280;24864;49.940;19.770;2022-11-02T11:59:19;75239.31;;;-147.98;72.44
39129;BME280;24864;49.940;19.770;2022-11-02T12:01:50;75222.69;;;-147.98;71.32
39129;BME280;24864;49.940;19.770;2022-11-02T12:04:28;75220.63;;;-147.98;70.29
39129;BME280;24864;49.940;19.770;2022-11-02T12:07:09;75222.69;;;-147.98;69.77
39129;BME280;24864;49.940;19.770;2022-11-02T12:09:44;75231.00;;;-147.98;69.14
39129;BME280;24864;49.940;19.770;2022-11-02T12:12:21;75220.63;;;-147.98;69.45
39129;BME280;24864;49.940;19.770;2022-11-02T12:14:56;75222.69;;;-147.98;69.01
39129;BME280;24864;49.940;19.770;2022-11-02T12:17:42;75264.25;;;-147.98;69.10
39129;BME280;24864;49.940;19.770;2022-11-02T12:20:24;75224.78;;;-147.98;73.16
39129;BME280;24864;49.940;19.770;2022-11-02T12:23:00;75212.31;;;-147.98;70.79
39129;BME280;24864;49.940;19.770;2022-11-02T12:25:42;75193.59;;;-147.98;69.44
39129;BME280;24864;49.940;19.770;2022-11-02T12:28:22;75218.53;;;-147.98;71.31
39129;BME280;24864;49.940;19.770;2022-11-02T12:31:00;75289.19;;;-147.98;71.70
39129;BME280;24864;49.940;19.770;2022-11-02T12:33:38;75268.41;;;-147.98;72.27
39129;BME280;24864;49.940;19.770;2022-11-02T12:36:18;75280.88;;;-147.98;71.91
39129;BME280;24864;49.940;19.770;2022-11-02T12:38:59;75280.88;;;-147.98;72.15
39129;BME280;24864;49.940;19.770;2022-11-02T12:42:02;75301.69;;;-147.98;74.03
39129;BME280;24864;49.940;19.770;2022-11-02T12:44:57;75297.53;;;-147.98;74.28
39129;BME280;24864;49.940;19.770;2022-11-02T12:47:38;75272.56;;;-147.98;74.41
39129;BME280;24864;49.940;19.770;2022-11-02T12:50:18;75285.03;;;-147.98;75.43